Etusivu
METAR-TAF:

METAR-TAF

Lentoasemat :

Wakkanai, Japani

Leveyspiiri: 45-24N, Pituuspiiri: 141-48E, korkeus merenpinnasta: 8 m

Tämänhetkinen sää

Tämä raportti tehtiin 10 tuntia ja 5 minuuttia sitten, kello 09.00 UTC
Tuuli 10 kn pohjoisesta/koillisesta
Lämpötila 0°C
Kosteus 74%
Ilmanpaine 1014 hPa
Näkyvyys 10 km tai enemmän
Muutamia pilviä 1500 ft:n korkeudessa

METAR: RJCW 190900Z 02010KT 9999 FEW015 00/M04 Q1014

Aika: 04:05 (19:05 UTC)


TAF: puuttuu

Säähavainnot ja -ennusteet yli 4000 lentoasemalta (METAR- ja TAF-raportit).

Käytössä olevat sääasemat on merkitty karttaan keltaisilla ja punaisilla pisteillä.

Aseta hiiri pisteen päälle nähdäksesi sääaseman nimen.

Klikkaa sitten nähdäksesi säähavainnot ja -ennusteet.

Kartan vaihtaminen: klikkaa mustalla rastilla varustettuja vihreitä pisteitä, niin voit zoomata sisään; viivalla varustettua vihreää pistettä, niin voit zoomata ulos tai vihreitä nuolia, niin pääset viereisille kartoille.


METAR-TAF: